createdAt,value
2023-03-06T00:01:32.972Z,62.17
2023-03-06T00:04:05.522Z,62.10
2023-03-06T00:06:38.006Z,62.31
2023-03-06T00:09:10.971Z,62.48
2023-03-06T00:11:43.837Z,62.41
2023-03-06T00:14:16.584Z,62.33
2023-03-06T00:16:49.106Z,62.34
2023-03-06T00:19:21.533Z,62.43
2023-03-06T00:21:54.808Z,62.24
2023-03-06T00:24:27.816Z,62.40
2023-03-06T00:27:00.224Z,62.45
2023-03-06T00:29:32.546Z,62.35
2023-03-06T00:32:05.060Z,62.21
2023-03-06T00:34:39.881Z,62.19
2023-03-06T00:37:13.449Z,62.29
2023-03-06T00:39:46.640Z,62.37
2023-03-06T00:42:20.305Z,62.31
2023-03-06T00:44:53.085Z,62.24
2023-03-06T00:47:25.624Z,62.45
2023-03-06T00:49:58.089Z,62.43
2023-03-06T00:52:30.623Z,62.42
2023-03-06T00:55:03.390Z,62.46
2023-03-06T00:57:36.379Z,62.71
2023-03-06T01:00:10.889Z,62.74
2023-03-06T01:02:42.294Z,62.80
2023-03-06T01:05:15.799Z,62.83
2023-03-06T01:07:48.205Z,62.82
2023-03-06T01:10:20.989Z,62.83
2023-03-06T01:12:53.868Z,62.69
2023-03-06T01:15:26.525Z,62.85
2023-03-06T01:17:58.980Z,63.06
2023-03-06T01:20:32.011Z,63.19
2023-03-06T01:23:04.610Z,63.46
2023-03-06T01:25:37.320Z,64.04
2023-03-06T01:28:09.877Z,64.01
2023-03-06T01:30:42.218Z,64.06
2023-03-06T01:33:14.760Z,63.93
2023-03-06T01:35:47.745Z,63.93
2023-03-06T01:38:20.411Z,63.88
2023-03-06T01:40:53.392Z,63.94
2023-03-06T01:43:32.019Z,64.05
2023-03-06T01:46:38.845Z,64.26
2023-03-06T01:49:17.493Z,64.33
2023-03-06T01:51:53.984Z,64.40
2023-03-06T01:54:29.735Z,64.59
2023-03-06T01:57:06.906Z,64.91
2023-03-06T01:59:41.901Z,65.00
2023-03-06T02:02:16.548Z,65.15
2023-03-06T02:04:49.857Z,65.21
2023-03-06T02:07:24.631Z,65.43
2023-03-06T02:09:57.063Z,65.75
2023-03-06T02:12:30.422Z,65.80
2023-03-06T02:15:03.799Z,66.09
2023-03-06T02:17:37.073Z,66.46
2023-03-06T02:20:16.015Z,66.39
2023-03-06T02:22:54.813Z,66.50
2023-03-06T02:25:37.332Z,66.54
2023-03-06T02:28:12.585Z,66.83
2023-03-06T02:30:47.205Z,67.05
2023-03-06T02:33:19.902Z,67.13
2023-03-06T02:35:55.093Z,67.10
2023-03-06T02:38:30.057Z,67.12
2023-03-06T02:41:06.408Z,67.21
2023-03-06T02:43:41.406Z,67.44
2023-03-06T02:46:14.597Z,67.59
2023-03-06T02:48:46.925Z,67.81
2023-03-06T02:51:19.393Z,68.11
2023-03-06T02:53:52.020Z,68.44
2023-03-06T02:56:24.417Z,68.52
2023-03-06T02:58:56.961Z,68.65
2023-03-06T03:01:30.515Z,68.71
2023-03-06T03:04:03.063Z,68.92
2023-03-06T03:06:35.745Z,68.86
2023-03-06T03:09:08.509Z,68.99
2023-03-06T03:11:41.203Z,69.00
2023-03-06T03:14:13.663Z,68.92
2023-03-06T03:16:46.641Z,68.80
2023-03-06T03:19:19.180Z,68.85
2023-03-06T03:21:51.834Z,68.97
2023-03-06T03:24:26.990Z,69.13
2023-03-06T03:26:59.888Z,69.41
2023-03-06T03:29:32.372Z,69.42
2023-03-06T03:32:05.626Z,69.85
2023-03-06T03:34:38.064Z,69.86
2023-03-06T03:37:11.534Z,70.16
2023-03-06T03:39:44.044Z,69.93
2023-03-06T03:42:16.719Z,70.81
2023-03-06T03:44:49.822Z,71.18
2023-03-06T03:47:22.770Z,71.19
2023-03-06T03:49:56.226Z,71.56
2023-03-06T03:52:28.957Z,71.63
2023-03-06T03:55:01.467Z,71.74
2023-03-06T03:57:34.374Z,71.76
2023-03-06T04:00:08.211Z,71.58
2023-03-06T04:02:51.089Z,71.58
2023-03-06T04:05:30.981Z,71.36
2023-03-06T04:08:04.457Z,71.48
2023-03-06T04:10:38.771Z,71.62
2023-03-06T04:13:11.938Z,71.61
2023-03-06T04:15:47.421Z,71.60
2023-03-06T04:18:20.931Z,71.71
2023-03-06T04:20:54.219Z,71.60
2023-03-06T04:23:27.980Z,71.60
2023-03-06T04:26:00.686Z,71.60
2023-03-06T04:28:33.427Z,71.67
2023-03-06T04:31:06.896Z,71.68
2023-03-06T04:33:40.314Z,71.84
2023-03-06T04:36:25.641Z,71.37
2023-03-06T04:38:58.527Z,71.32
2023-03-06T04:41:31.721Z,71.21
2023-03-06T04:44:04.466Z,71.31
2023-03-06T04:46:37.617Z,71.28
2023-03-06T04:49:10.407Z,71.32
2023-03-06T04:51:42.798Z,71.27
2023-03-06T04:54:15.559Z,71.25
2023-03-06T04:56:48.790Z,71.30
2023-03-06T04:59:21.252Z,71.24
2023-03-06T05:01:53.763Z,71.15
2023-03-06T05:04:26.500Z,71.28
2023-03-06T05:06:59.010Z,71.36
2023-03-06T05:09:31.783Z,71.21
2023-03-06T05:12:04.970Z,71.12
2023-03-06T05:14:37.590Z,71.26
2023-03-06T05:17:10.535Z,71.37
2023-03-06T05:19:43.359Z,71.34
2023-03-06T05:22:15.716Z,71.41
2023-03-06T05:24:48.161Z,71.26
2023-03-06T05:27:20.692Z,71.31
2023-03-06T05:29:53.485Z,71.29
2023-03-06T05:32:25.946Z,71.34
2023-03-06T05:34:58.590Z,71.25
2023-03-06T05:37:31.623Z,71.32
2023-03-06T05:40:09.613Z,71.19
2023-03-06T05:42:42.016Z,71.17
2023-03-06T05:45:15.797Z,71.21
2023-03-06T05:47:48.340Z,71.34
2023-03-06T05:50:21.535Z,71.37
2023-03-06T05:52:54.436Z,71.42
2023-03-06T05:55:27.118Z,71.36
2023-03-06T05:57:59.759Z,71.32
2023-03-06T06:00:32.504Z,71.27
2023-03-06T06:03:05.214Z,71.32
2023-03-06T06:05:41.817Z,71.21
2023-03-06T06:08:14.400Z,71.10
2023-03-06T06:10:47.398Z,71.02
2023-03-06T06:13:19.809Z,71.03
2023-03-06T06:15:52.450Z,70.91
2023-03-06T06:18:25.036Z,70.83
2023-03-06T06:20:58.222Z,70.90
2023-03-06T06:23:31.629Z,70.80
2023-03-06T06:26:05.474Z,70.96
2023-03-06T06:28:38.529Z,70.92
2023-03-06T06:31:14.985Z,70.81
2023-03-06T06:33:47.641Z,70.81
2023-03-06T06:36:21.531Z,70.72
2023-03-06T06:38:54.237Z,70.59
2023-03-06T06:41:46.066Z,70.54
2023-03-06T06:44:21.425Z,70.82
2023-03-06T06:49:50.472Z,70.34
2023-03-06T06:52:23.760Z,70.50
2023-03-06T06:54:56.471Z,70.78
2023-03-06T06:57:28.870Z,70.52
2023-03-06T07:00:01.511Z,70.36
2023-03-06T07:02:34.125Z,70.34
2023-03-06T07:05:07.975Z,70.50
2023-03-06T07:07:40.916Z,70.36
2023-03-06T07:10:18.365Z,70.25
2023-03-06T07:12:52.393Z,70.11
2023-03-06T07:15:27.136Z,70.61
2023-03-06T07:17:57.958Z,70.37
2023-03-06T07:20:31.919Z,70.17
2023-03-06T07:23:04.922Z,70.31
2023-03-06T07:25:38.417Z,70.27
2023-03-06T07:28:11.178Z,70.34
2023-03-06T07:30:44.919Z,70.33
2023-03-06T07:33:18.205Z,70.07
2023-03-06T07:35:50.870Z,70.05
2023-03-06T07:38:23.318Z,69.99
2023-03-06T07:40:55.890Z,70.00
2023-03-06T07:43:28.350Z,69.80
2023-03-06T07:46:06.193Z,69.85
2023-03-06T07:48:38.942Z,69.97
2023-03-06T07:51:14.664Z,69.81
2023-03-06T07:53:48.148Z,69.61
2023-03-06T07:56:20.585Z,69.59
2023-03-06T07:58:53.312Z,69.68
2023-03-06T08:01:26.499Z,69.48
2023-03-06T08:04:01.272Z,69.34
2023-03-06T08:06:33.692Z,69.25
2023-03-06T08:09:06.805Z,69.16
2023-03-06T08:11:39.128Z,68.98
2023-03-06T08:14:11.727Z,68.83
2023-03-06T08:16:44.209Z,68.69
2023-03-06T08:19:16.894Z,68.63
2023-03-06T08:21:49.377Z,68.52
2023-03-06T08:24:22.245Z,68.68
2023-03-06T08:26:54.665Z,68.64
2023-03-06T08:29:27.174Z,68.84
2023-03-06T08:31:59.681Z,68.70
2023-03-06T08:34:32.279Z,68.74
2023-03-06T08:37:04.742Z,68.60
2023-03-06T08:39:37.324Z,68.44
2023-03-06T08:42:10.705Z,68.51
2023-03-06T08:44:43.213Z,68.40
2023-03-06T08:47:16.032Z,68.29
2023-03-06T08:49:49.312Z,68.22
2023-03-06T08:52:22.006Z,68.25
2023-03-06T08:54:54.900Z,68.56
2023-03-06T08:57:27.230Z,68.22
2023-03-06T08:59:59.941Z,68.47
2023-03-06T09:02:33.331Z,68.39
2023-03-06T09:05:07.539Z,68.29
2023-03-06T09:07:39.897Z,68.21
2023-03-06T09:10:19.158Z,68.07
2023-03-06T09:12:54.692Z,68.19
2023-03-06T09:15:27.793Z,68.22
2023-03-06T09:18:00.274Z,68.36
2023-03-06T09:20:33.186Z,68.39
2023-03-06T09:23:06.304Z,67.64
2023-03-06T09:25:39.205Z,67.88
2023-03-06T09:28:12.350Z,68.16
2023-03-06T09:30:45.102Z,68.05
2023-03-06T09:33:17.874Z,67.77
2023-03-06T09:35:53.722Z,67.73
2023-03-06T09:38:29.107Z,67.59
2023-03-06T09:41:09.855Z,67.75
2023-03-06T09:43:44.857Z,68.19
2023-03-06T09:46:26.256Z,67.77
2023-03-06T09:49:11.475Z,67.28
2023-03-06T09:51:56.860Z,67.07
2023-03-06T09:54:35.801Z,67.10
2023-03-06T09:57:19.606Z,67.89
2023-03-06T09:59:55.664Z,66.78
2023-03-06T10:02:37.058Z,66.62
2023-03-06T10:05:14.457Z,66.99
2023-03-06T10:07:51.039Z,66.80
2023-03-06T10:10:26.891Z,66.21
2023-03-06T10:13:05.219Z,65.56
2023-03-06T10:15:42.599Z,65.61
2023-03-06T10:18:15.538Z,65.61
2023-03-06T10:21:04.699Z,65.61
2023-03-06T10:23:53.764Z,65.73
2023-03-06T10:26:32.811Z,65.42
2023-03-06T10:29:22.987Z,65.34
2023-03-06T10:32:05.717Z,65.31
2023-03-06T10:34:41.202Z,65.40
2023-03-06T10:37:20.730Z,65.29
2023-03-06T10:39:59.873Z,65.28
2023-03-06T10:42:32.642Z,64.91
2023-03-06T10:45:12.827Z,65.50
2023-03-06T10:47:46.241Z,65.54
2023-03-06T10:50:27.058Z,65.54
2023-03-06T10:53:05.832Z,66.07
2023-03-06T10:55:39.276Z,66.21
2023-03-06T10:58:24.318Z,66.04
2023-03-06T11:01:19.765Z,66.14
2023-03-06T11:03:54.181Z,66.19
2023-03-06T11:06:36.594Z,65.90
2023-03-06T11:09:23.047Z,66.09
2023-03-06T11:12:15.661Z,65.81
2023-03-06T11:14:48.120Z,65.55
2023-03-06T11:17:32.153Z,65.59
2023-03-06T11:20:22.574Z,66.10
2023-03-06T11:23:00.864Z,66.22
2023-03-06T11:25:38.912Z,66.20
2023-03-06T11:28:20.312Z,65.80
2023-03-06T11:30:56.169Z,66.24
2023-03-06T11:33:35.571Z,66.44
2023-03-06T11:36:21.497Z,66.71
2023-03-06T11:38:55.054Z,67.20
2023-03-06T11:41:37.472Z,67.17
2023-03-06T11:44:23.202Z,66.82
2023-03-06T11:47:00.527Z,67.47
2023-03-06T11:49:40.785Z,67.31
2023-03-06T11:52:21.553Z,67.54
2023-03-06T11:54:57.427Z,67.96
2023-03-06T11:57:41.086Z,68.01
2023-03-06T12:00:23.942Z,68.56
2023-03-06T12:03:37.450Z,68.03
2023-03-06T12:06:18.359Z,68.24
2023-03-06T12:09:05.053Z,68.87
2023-03-06T12:11:47.233Z,68.35
2023-03-06T12:14:35.238Z,68.82
2023-03-06T12:17:18.560Z,68.96
2023-03-06T12:20:06.291Z,69.42
2023-03-06T12:22:58.256Z,69.17
2023-03-06T12:25:45.322Z,69.39
2023-03-06T12:28:32.576Z,69.85
2023-03-06T12:31:25.849Z,69.67
2023-03-06T12:34:11.025Z,70.00
2023-03-06T12:36:57.992Z,69.20
2023-03-06T12:39:48.358Z,69.69
2023-03-06T12:42:33.129Z,69.16
2023-03-06T12:45:26.095Z,69.60
2023-03-06T12:47:59.727Z,69.85
2023-03-06T12:50:33.611Z,69.83
2023-03-06T12:53:08.592Z,70.25
2023-03-06T12:55:43.667Z,69.87
2023-03-06T12:58:37.011Z,69.81
2023-03-06T13:01:15.223Z,69.81
2023-03-06T13:04:02.555Z,69.36
2023-03-06T13:06:58.429Z,69.42
2023-03-06T13:09:39.171Z,69.67
2023-03-06T13:12:39.940Z,69.47
2023-03-06T13:15:42.458Z,69.83
2023-03-06T13:18:51.631Z,70.10
2023-03-06T13:22:00.463Z,70.26
2023-03-06T13:24:37.219Z,70.43
2023-03-06T13:27:34.193Z,70.88
2023-03-06T13:30:27.261Z,70.89
2023-03-06T13:32:59.776Z,69.93
2023-03-06T13:35:58.279Z,69.74
2023-03-06T13:38:37.400Z,69.30
2023-03-06T13:41:41.619Z,69.53
2023-03-06T13:44:42.655Z,69.79
2023-03-06T13:47:39.168Z,69.16
2023-03-06T13:50:36.049Z,69.12
2023-03-06T13:53:36.545Z,69.36
2023-03-06T13:56:46.792Z,69.19
2023-03-06T13:59:41.903Z,69.13
2023-03-06T14:02:40.902Z,69.14
2023-03-06T14:05:17.986Z,69.02
2023-03-06T14:08:03.095Z,69.32
2023-03-06T14:10:35.635Z,69.15
2023-03-06T14:13:16.262Z,69.00
2023-03-06T14:15:50.897Z,68.97
2023-03-06T14:18:27.509Z,68.76
2023-03-06T14:21:02.603Z,69.24
2023-03-06T14:23:38.253Z,69.79
2023-03-06T14:26:17.684Z,69.35
2023-03-06T14:28:58.420Z,69.60
2023-03-06T14:31:34.625Z,69.68
2023-03-06T14:34:09.170Z,70.07
2023-03-06T14:36:47.958Z,70.23
2023-03-06T14:39:24.257Z,70.23
2023-03-06T14:42:08.931Z,69.94
2023-03-06T14:44:41.895Z,69.25
2023-03-06T14:47:27.243Z,68.24
2023-03-06T14:50:24.740Z,68.31
2023-03-06T14:53:00.384Z,68.77
2023-03-06T14:55:34.478Z,68.97
2023-03-06T14:58:13.083Z,69.41
2023-03-06T15:00:50.045Z,69.39
2023-03-06T15:03:25.884Z,69.19
2023-03-06T15:05:58.678Z,69.64
2023-03-06T15:08:36.505Z,69.61
2023-03-06T15:11:09.949Z,69.08
2023-03-06T15:13:42.871Z,69.07
2023-03-06T15:16:30.385Z,68.67
2023-03-06T15:19:04.764Z,67.66
2023-03-06T15:21:39.137Z,67.56
2023-03-06T15:24:36.095Z,67.50
2023-03-06T15:27:17.811Z,67.54
2023-03-06T15:29:50.482Z,67.01
2023-03-06T15:32:34.798Z,66.61
2023-03-06T15:35:37.354Z,66.82
2023-03-06T15:38:26.546Z,66.32
2023-03-06T15:41:01.005Z,65.69
2023-03-06T15:43:36.380Z,65.36
2023-03-06T15:46:10.221Z,65.55
2023-03-06T15:48:51.774Z,65.33
2023-03-06T15:51:24.348Z,65.16
2023-03-06T15:54:09.693Z,65.23
2023-03-06T15:56:47.263Z,65.09
2023-03-06T15:59:24.709Z,65.08
2023-03-06T16:01:57.531Z,65.22
2023-03-06T16:04:30.127Z,65.30
2023-03-06T16:07:02.925Z,64.99
2023-03-06T16:09:35.419Z,65.20
2023-03-06T16:12:14.860Z,65.17
2023-03-06T16:14:48.711Z,64.90
2023-03-06T16:17:21.782Z,65.07
2023-03-06T16:19:54.834Z,65.15
2023-03-06T16:22:27.713Z,65.40
2023-03-06T16:25:00.140Z,65.38
2023-03-06T16:27:32.824Z,65.85
2023-03-06T16:30:05.691Z,66.09
2023-03-06T16:32:39.700Z,65.59
2023-03-06T16:35:13.708Z,65.37
2023-03-06T16:37:46.508Z,65.26
2023-03-06T16:40:23.777Z,65.26
2023-03-06T16:42:57.348Z,65.39
2023-03-06T16:45:30.191Z,65.03
2023-03-06T16:48:03.150Z,65.17
2023-03-06T16:50:39.889Z,65.85
2023-03-06T16:53:12.685Z,65.13
2023-03-06T16:55:46.572Z,64.96
2023-03-06T16:58:19.139Z,64.65
2023-03-06T17:00:51.742Z,64.85
2023-03-06T17:03:25.365Z,65.06
2023-03-06T17:05:57.935Z,64.80
2023-03-06T17:08:31.091Z,65.03
2023-03-06T17:11:06.181Z,65.22
2023-03-06T17:13:39.190Z,64.97
2023-03-06T17:16:16.617Z,64.98
2023-03-06T17:18:49.891Z,64.96
2023-03-06T17:21:22.933Z,65.27
2023-03-06T17:23:56.395Z,65.21
2023-03-06T17:26:28.945Z,65.19
2023-03-06T17:29:01.326Z,65.45
2023-03-06T17:31:34.052Z,65.60
2023-03-06T17:34:06.622Z,65.54
2023-03-06T17:36:39.471Z,65.70
2023-03-06T17:39:12.910Z,66.04
2023-03-06T17:41:46.532Z,66.36
2023-03-06T17:44:19.895Z,66.68
2023-03-06T17:46:52.510Z,66.83
2023-03-06T17:49:25.439Z,66.53
2023-03-06T17:52:00.045Z,66.55
2023-03-06T17:54:33.394Z,66.71
2023-03-06T17:57:06.761Z,66.59
2023-03-06T17:59:39.408Z,66.53
2023-03-06T18:02:12.927Z,66.36
2023-03-06T18:04:45.509Z,65.97
2023-03-06T18:07:18.129Z,65.85
2023-03-06T18:09:51.028Z,65.69
2023-03-06T18:12:23.817Z,65.63
2023-03-06T18:14:56.638Z,65.27
2023-03-06T18:17:29.408Z,64.69
2023-03-06T18:20:02.594Z,64.47
2023-03-06T18:22:36.268Z,64.29
2023-03-06T18:25:10.683Z,64.45
2023-03-06T18:27:43.275Z,64.47
2023-03-06T18:30:16.840Z,64.48
2023-03-06T18:32:50.071Z,64.39
2023-03-06T18:35:23.134Z,64.54
2023-03-06T18:37:55.751Z,64.73
2023-03-06T18:40:28.403Z,64.78
2023-03-06T18:43:02.502Z,64.65
2023-03-06T18:45:36.553Z,64.69
2023-03-06T18:48:10.020Z,64.62
2023-03-06T18:50:43.082Z,64.42
2023-03-06T18:53:16.403Z,64.41
2023-03-06T18:55:52.515Z,64.31
2023-03-06T18:58:26.117Z,64.23
2023-03-06T19:00:59.689Z,64.20
2023-03-06T19:03:32.677Z,64.30
2023-03-06T19:06:09.706Z,64.18
2023-03-06T19:08:43.095Z,64.17
2023-03-06T19:11:17.413Z,64.14
2023-03-06T19:13:50.131Z,64.10
2023-03-06T19:16:24.616Z,64.37
2023-03-06T19:18:57.713Z,64.64
2023-03-06T19:21:31.131Z,64.66
2023-03-06T19:24:04.819Z,64.62
2023-03-06T19:26:37.477Z,64.80
2023-03-06T19:29:10.252Z,64.80
2023-03-06T19:31:43.083Z,64.79
2023-03-06T19:34:15.687Z,64.80
2023-03-06T19:36:50.880Z,65.01
2023-03-06T19:39:24.503Z,65.81
2023-03-06T19:41:57.053Z,65.95
2023-03-06T19:44:29.698Z,65.53
2023-03-06T19:47:02.258Z,65.31
2023-03-06T19:49:34.919Z,65.06
2023-03-06T19:52:08.169Z,64.97
2023-03-06T19:54:41.377Z,65.17
2023-03-06T19:57:14.243Z,65.44
2023-03-06T19:59:49.872Z,65.71
2023-03-06T20:02:26.687Z,65.58
2023-03-06T20:04:59.548Z,65.51
2023-03-06T20:07:32.172Z,65.23
2023-03-06T20:10:05.591Z,65.16
2023-03-06T20:12:38.395Z,64.92
2023-03-06T20:15:13.054Z,64.66
2023-03-06T20:17:45.609Z,64.59
2023-03-06T20:20:18.559Z,64.52
2023-03-06T20:22:51.219Z,64.33
2023-03-06T20:25:24.354Z,64.34
2023-03-06T20:27:56.802Z,64.54
2023-03-06T20:30:37.477Z,64.24
2023-03-06T20:33:10.651Z,63.96
2023-03-06T20:35:45.026Z,63.82
2023-03-06T20:38:18.552Z,63.80
2023-03-06T20:40:54.663Z,63.56
2023-03-06T20:43:27.234Z,63.61
2023-03-06T20:46:00.988Z,63.83
2023-03-06T20:48:34.112Z,63.62
2023-03-06T20:51:09.001Z,63.50
2023-03-06T20:53:41.996Z,63.55
2023-03-06T20:56:16.922Z,63.76
2023-03-06T20:58:48.080Z,63.61
2023-03-06T21:01:24.721Z,63.42
2023-03-06T21:03:58.050Z,63.29
2023-03-06T21:06:31.729Z,63.03
2023-03-06T21:09:06.225Z,63.04
2023-03-06T21:11:36.979Z,63.08
2023-03-06T21:14:09.777Z,63.04
2023-03-06T21:16:44.034Z,62.89
2023-03-06T21:19:17.107Z,62.93
2023-03-06T21:21:50.341Z,62.84
2023-03-06T21:24:22.987Z,62.91
2023-03-06T21:26:55.691Z,62.96
2023-03-06T21:29:28.245Z,63.05
2023-03-06T21:32:00.857Z,63.05
2023-03-06T21:34:33.415Z,63.08
2023-03-06T21:37:05.796Z,63.16
2023-03-06T21:39:38.680Z,63.09
2023-03-06T21:42:11.394Z,63.12
2023-03-06T21:44:43.869Z,63.23
2023-03-06T21:47:16.388Z,63.24
2023-03-06T21:49:51.049Z,63.39
2023-03-06T21:52:25.644Z,63.81
2023-03-06T21:54:59.002Z,64.24
2023-03-06T21:57:31.772Z,64.56
2023-03-06T22:00:08.471Z,65.29
2023-03-06T22:02:42.686Z,65.72
2023-03-06T22:05:15.736Z,65.99
2023-03-06T22:07:48.241Z,66.34
2023-03-06T22:10:20.891Z,66.76
2023-03-06T22:12:53.234Z,67.04
2023-03-06T22:15:25.782Z,67.29
2023-03-06T22:17:58.355Z,67.67
2023-03-06T22:20:31.325Z,68.43
2023-03-06T22:23:03.783Z,69.43
2023-03-06T22:25:36.990Z,69.81
2023-03-06T22:28:09.872Z,70.13
2023-03-06T22:30:42.653Z,69.93
2023-03-06T22:33:14.965Z,69.92
2023-03-06T22:35:47.459Z,69.78
2023-03-06T22:38:19.843Z,69.40
2023-03-06T22:40:52.285Z,69.57
2023-03-06T22:43:24.753Z,69.74
2023-03-06T22:46:01.226Z,69.72
2023-03-06T22:48:34.235Z,69.85
2023-03-06T22:51:09.462Z,69.48
2023-03-06T22:53:42.573Z,69.31
2023-03-06T22:56:17.088Z,69.57
2023-03-06T22:58:49.776Z,69.46
2023-03-06T23:01:25.281Z,69.45
2023-03-06T23:03:59.193Z,69.28
2023-03-06T23:06:33.632Z,69.35
2023-03-06T23:09:08.776Z,70.03
2023-03-06T23:11:59.519Z,70.28
2023-03-06T23:14:51.316Z,69.78
2023-03-06T23:17:42.781Z,69.76
2023-03-06T23:20:34.001Z,69.94
2023-03-06T23:23:25.023Z,70.10
2023-03-06T23:26:01.154Z,69.71
2023-03-06T23:28:35.036Z,69.50
2023-03-06T23:31:11.685Z,69.36
2023-03-06T23:33:44.634Z,69.36
2023-03-06T23:36:19.114Z,69.34
2023-03-06T23:38:51.673Z,69.36
2023-03-06T23:41:24.849Z,69.53
2023-03-06T23:43:57.607Z,69.57
2023-03-06T23:46:30.140Z,69.65
2023-03-06T23:49:02.729Z,69.59
2023-03-06T23:51:35.107Z,69.44
2023-03-06T23:54:08.169Z,69.06
2023-03-06T23:56:40.628Z,68.90
2023-03-06T23:59:14.319Z,68.69
